sensor_id;sensor_type;location;lat;lon;timestamp;temperature;humidity
52323;DHT22;38263;52.920;6.238;2022-10-16T00:01:48;13.30;99.90
52323;DHT22;38263;52.920;6.238;2022-10-16T00:04:13;13.20;99.90
52323;DHT22;38263;52.920;6.238;2022-10-16T00:06:39;13.20;99.90
52323;DHT22;38263;52.920;6.238;2022-10-16T00:09:05;13.30;99.90
52323;DHT22;38263;52.920;6.238;2022-10-16T00:11:33;13.40;99.90
52323;DHT22;38263;52.920;6.238;2022-10-16T00:14:03;13.40;99.90
52323;DHT22;38263;52.920;6.238;2022-10-16T00:16:30;13.40;99.90
52323;DHT22;38263;52.920;6.238;2022-10-16T00:18:56;13.40;99.90
52323;DHT22;38263;52.920;6.238;2022-10-16T00:21:24;13.30;99.90
52323;DHT22;38263;52.920;6.238;2022-10-16T00:23:51;13.40;99.90
52323;DHT22;38263;52.920;6.238;2022-10-16T00:26:18;13.40;99.90
52323;DHT22;38263;52.920;6.238;2022-10-16T00:28:49;13.40;99.90
52323;DHT22;38263;52.920;6.238;2022-10-16T00:31:15;13.40;99.90
52323;DHT22;38263;52.920;6.238;2022-10-16T00:33:41;13.40;99.90
52323;DHT22;38263;52.920;6.238;2022-10-16T00:36:10;13.50;99.90
52323;DHT22;38263;52.920;6.238;2022-10-16T00:38:36;13.40;99.90
52323;DHT22;38263;52.920;6.238;2022-10-16T00:41:03;13.40;99.90
52323;DHT22;38263;52.920;6.238;2022-10-16T00:43:36;13.40;99.90
52323;DHT22;38263;52.920;6.238;2022-10-16T00:46:04;13.50;99.90
52323;DHT22;38263;52.920;6.238;2022-10-16T00:48:31;13.40;99.90
52323;DHT22;38263;52.920;6.238;2022-10-16T00:50:57;13.40;99.90
52323;DHT22;38263;52.920;6.238;2022-10-16T00:53:24;13.40;99.90
52323;DHT22;38263;52.920;6.238;2022-10-16T00:55:50;13.40;99.90
52323;DHT22;38263;52.920;6.238;2022-10-16T00:58:16;13.40;99.90
52323;DHT22;38263;52.920;6.238;2022-10-16T01:00:42;13.40;99.90
52323;DHT22;38263;52.920;6.238;2022-10-16T01:03:31;13.30;99.90
52323;DHT22;38263;52.920;6.238;2022-10-16T01:06:32;13.40;99.90
52323;DHT22;38263;52.920;6.238;2022-10-16T01:14:26;13.30;99.90
52323;DHT22;38263;52.920;6.238;2022-10-16T01:17:00;13.70;99.90
52323;DHT22;38263;52.920;6.238;2022-10-16T01:25:36;13.60;99.90
52323;DHT22;38263;52.920;6.238;2022-10-16T01:28:06;13.50;99.90
52323;DHT22;38263;52.920;6.238;2022-10-16T01:30:35;13.40;99.90
52323;DHT22;38263;52.920;6.238;2022-10-16T01:33:23;13.60;99.90
52323;DHT22;38263;52.920;6.238;2022-10-16T01:35:56;13.60;99.90
52323;DHT22;38263;52.920;6.238;2022-10-16T01:38:36;13.50;99.90
52323;DHT22;38263;52.920;6.238;2022-10-16T01:41:18;13.60;99.90
52323;DHT22;38263;52.920;6.238;2022-10-16T01:43:50;13.50;99.90
52323;DHT22;38263;52.920;6.238;2022-10-16T01:46:20;13.50;99.90
52323;DHT22;38263;52.920;6.238;2022-10-16T01:48:47;13.50;99.90
52323;DHT22;38263;52.920;6.238;2022-10-16T01:51:14;13.60;99.90
52323;DHT22;38263;52.920;6.238;2022-10-16T01:53:42;13.40;99.90
52323;DHT22;38263;52.920;6.238;2022-10-16T01:56:12;13.60;99.90
52323;DHT22;38263;52.920;6.238;2022-10-16T01:58:44;13.60;99.90
52323;DHT22;38263;52.920;6.238;2022-10-16T02:01:11;13.60;99.90
52323;DHT22;38263;52.920;6.238;2022-10-16T02:03:40;13.50;99.90
52323;DHT22;38263;52.920;6.238;2022-10-16T02:06:08;13.50;99.90
52323;DHT22;38263;52.920;6.238;2022-10-16T02:08:33;13.40;99.90
52323;DHT22;38263;52.920;6.238;2022-10-16T02:11:00;13.50;99.90
52323;DHT22;38263;52.920;6.238;2022-10-16T02:13:39;13.50;99.90
52323;DHT22;38263;52.920;6.238;2022-10-16T02:16:06;13.50;99.90
52323;DHT22;38263;52.920;6.238;2022-10-16T02:18:32;13.60;99.90
52323;DHT22;38263;52.920;6.238;2022-10-16T02:24:05;13.50;99.90
52323;DHT22;38263;52.920;6.238;2022-10-16T02:29:21;13.40;99.90
52323;DHT22;38263;52.920;6.238;2022-10-16T02:31:50;13.40;99.90
52323;DHT22;38263;52.920;6.238;2022-10-16T02:34:18;13.40;99.90
52323;DHT22;38263;52.920;6.238;2022-10-16T02:36:47;13.60;99.90
52323;DHT22;38263;52.920;6.238;2022-10-16T02:39:14;13.50;99.90
52323;DHT22;38263;52.920;6.238;2022-10-16T02:41:40;13.30;99.90
52323;DHT22;38263;52.920;6.238;2022-10-16T02:44:06;13.40;99.90
52323;DHT22;38263;52.920;6.238;2022-10-16T02:46:31;13.50;99.90
52323;DHT22;38263;52.920;6.238;2022-10-16T02:48:57;13.50;99.90
52323;DHT22;38263;52.920;6.238;2022-10-16T02:51:23;13.50;99.90
52323;DHT22;38263;52.920;6.238;2022-10-16T02:53:48;13.40;99.90
52323;DHT22;38263;52.920;6.238;2022-10-16T02:56:14;13.50;99.90
52323;DHT22;38263;52.920;6.238;2022-10-16T02:58:39;13.50;99.90
52323;DHT22;38263;52.920;6.238;2022-10-16T03:01:05;13.70;99.90
52323;DHT22;38263;52.920;6.238;2022-10-16T03:03:30;13.70;99.90
52323;DHT22;38263;52.920;6.238;2022-10-16T03:05:56;13.70;99.90
52323;DHT22;38263;52.920;6.238;2022-10-16T03:08:21;13.50;99.90
52323;DHT22;38263;52.920;6.238;2022-10-16T03:10:49;13.70;99.90
52323;DHT22;38263;52.920;6.238;2022-10-16T03:13:15;13.50;99.90
52323;DHT22;38263;52.920;6.238;2022-10-16T03:15:41;13.40;99.90
52323;DHT22;38263;52.920;6.238;2022-10-16T03:18:07;13.60;99.90
52323;DHT22;38263;52.920;6.238;2022-10-16T03:20:32;13.50;99.90
52323;DHT22;38263;52.920;6.238;2022-10-16T03:22:58;13.50;99.90
52323;DHT22;38263;52.920;6.238;2022-10-16T03:25:23;13.50;99.90
52323;DHT22;38263;52.920;6.238;2022-10-16T03:27:49;13.50;99.90
52323;DHT22;38263;52.920;6.238;2022-10-16T03:30:14;13.50;99.90
52323;DHT22;38263;52.920;6.238;2022-10-16T03:32:41;13.30;99.90
52323;DHT22;38263;52.920;6.238;2022-10-16T03:35:08;13.20;99.90
52323;DHT22;38263;52.920;6.238;2022-10-16T03:37:34;13.30;99.90
52323;DHT22;38263;52.920;6.238;2022-10-16T03:40:00;13.30;99.90
52323;DHT22;38263;52.920;6.238;2022-10-16T03:42:25;13.50;99.90
52323;DHT22;38263;52.920;6.238;2022-10-16T03:44:51;13.30;99.90
52323;DHT22;38263;52.920;6.238;2022-10-16T03:47:16;13.30;99.90
52323;DHT22;38263;52.920;6.238;2022-10-16T03:49:45;13.30;99.90
52323;DHT22;38263;52.920;6.238;2022-10-16T03:52:11;13.30;99.90
52323;DHT22;38263;52.920;6.238;2022-10-16T03:54:36;13.40;99.90
52323;DHT22;38263;52.920;6.238;2022-10-16T03:57:02;13.50;99.90
52323;DHT22;38263;52.920;6.238;2022-10-16T03:59:28;13.40;99.90
52323;DHT22;38263;52.920;6.238;2022-10-16T04:01:53;13.40;99.90
52323;DHT22;38263;52.920;6.238;2022-10-16T04:04:19;13.40;99.90
52323;DHT22;38263;52.920;6.238;2022-10-16T04:06:44;13.40;99.90
52323;DHT22;38263;52.920;6.238;2022-10-16T04:09:10;13.70;99.90
52323;DHT22;38263;52.920;6.238;2022-10-16T04:11:35;13.30;99.90
52323;DHT22;38263;52.920;6.238;2022-10-16T04:14:01;13.30;99.90
52323;DHT22;38263;52.920;6.238;2022-10-16T04:16:27;13.30;99.90
52323;DHT22;38263;52.920;6.238;2022-10-16T04:18:52;13.20;99.90
52323;DHT22;38263;52.920;6.238;2022-10-16T04:21:18;13.30;99.90
52323;DHT22;38263;52.920;6.238;2022-10-16T04:23:43;13.20;99.90
52323;DHT22;38263;52.920;6.238;2022-10-16T04:26:09;13.30;99.90
52323;DHT22;38263;52.920;6.238;2022-10-16T04:28:35;13.30;99.90
52323;DHT22;38263;52.920;6.238;2022-10-16T04:31:04;13.30;99.90
52323;DHT22;38263;52.920;6.238;2022-10-16T04:33:29;13.30;99.90
52323;DHT22;38263;52.920;6.238;2022-10-16T04:35:59;13.30;99.90
52323;DHT22;38263;52.920;6.238;2022-10-16T04:38:25;13.30;99.90
52323;DHT22;38263;52.920;6.238;2022-10-16T04:40:51;13.30;99.90
52323;DHT22;38263;52.920;6.238;2022-10-16T04:43:17;13.30;99.90
52323;DHT22;38263;52.920;6.238;2022-10-16T04:45:43;13.30;99.90
52323;DHT22;38263;52.920;6.238;2022-10-16T04:48:08;13.30;99.90
52323;DHT22;38263;52.920;6.238;2022-10-16T04:50:34;13.40;99.90
52323;DHT22;38263;52.920;6.238;2022-10-16T04:52:59;13.40;99.90
52323;DHT22;38263;52.920;6.238;2022-10-16T04:55:25;13.40;99.90
52323;DHT22;38263;52.920;6.238;2022-10-16T04:57:51;13.30;99.90
52323;DHT22;38263;52.920;6.238;2022-10-16T05:00:16;13.40;99.90
52323;DHT22;38263;52.920;6.238;2022-10-16T05:02:42;13.50;99.90
52323;DHT22;38263;52.920;6.238;2022-10-16T05:05:08;13.50;99.90
52323;DHT22;38263;52.920;6.238;2022-10-16T05:07:33;13.50;99.90
52323;DHT22;38263;52.920;6.238;2022-10-16T05:09:59;13.40;99.90
52323;DHT22;38263;52.920;6.238;2022-10-16T05:12:24;13.30;99.90
52323;DHT22;38263;52.920;6.238;2022-10-16T05:14:50;13.20;99.90
52323;DHT22;38263;52.920;6.238;2022-10-16T05:17:16;13.40;99.90
52323;DHT22;38263;52.920;6.238;2022-10-16T05:19:41;13.30;99.90
52323;DHT22;38263;52.920;6.238;2022-10-16T05:22:07;13.40;99.90
52323;DHT22;38263;52.920;6.238;2022-10-16T05:24:32;13.40;99.90
52323;DHT22;38263;52.920;6.238;2022-10-16T05:26:58;13.30;99.90
52323;DHT22;38263;52.920;6.238;2022-10-16T05:29:24;13.30;99.90
52323;DHT22;38263;52.920;6.238;2022-10-16T05:31:51;13.50;99.90
52323;DHT22;38263;52.920;6.238;2022-10-16T05:34:17;13.50;99.90
52323;DHT22;38263;52.920;6.238;2022-10-16T05:36:42;13.40;99.90
52323;DHT22;38263;52.920;6.238;2022-10-16T05:39:11;13.50;99.90
52323;DHT22;38263;52.920;6.238;2022-10-16T05:41:36;13.50;99.90
52323;DHT22;38263;52.920;6.238;2022-10-16T05:44:05;13.60;99.90
52323;DHT22;38263;52.920;6.238;2022-10-16T05:46:32;13.50;99.90
52323;DHT22;38263;52.920;6.238;2022-10-16T05:48:58;13.50;99.90
52323;DHT22;38263;52.920;6.238;2022-10-16T05:51:23;13.60;99.90
52323;DHT22;38263;52.920;6.238;2022-10-16T05:53:49;13.30;99.90
52323;DHT22;38263;52.920;6.238;2022-10-16T05:56:15;13.30;99.90
52323;DHT22;38263;52.920;6.238;2022-10-16T05:58:41;13.40;99.90
52323;DHT22;38263;52.920;6.238;2022-10-16T06:01:16;13.40;99.90
52323;DHT22;38263;52.920;6.238;2022-10-16T06:08:34;13.30;99.90
52323;DHT22;38263;52.920;6.238;2022-10-16T06:11:05;13.20;99.90
52323;DHT22;38263;52.920;6.238;2022-10-16T06:13:31;13.50;99.90
52323;DHT22;38263;52.920;6.238;2022-10-16T06:15:58;13.30;99.90
52323;DHT22;38263;52.920;6.238;2022-10-16T06:18:24;13.30;99.90
52323;DHT22;38263;52.920;6.238;2022-10-16T06:20:50;13.40;99.90
52323;DHT22;38263;52.920;6.238;2022-10-16T06:23:15;13.30;99.90
52323;DHT22;38263;52.920;6.238;2022-10-16T06:25:41;13.40;99.90
52323;DHT22;38263;52.920;6.238;2022-10-16T06:28:06;13.30;99.90
52323;DHT22;38263;52.920;6.238;2022-10-16T06:30:32;13.30;99.90
52323;DHT22;38263;52.920;6.238;2022-10-16T06:32:57;13.10;99.90
52323;DHT22;38263;52.920;6.238;2022-10-16T06:35:23;13.30;99.90
52323;DHT22;38263;52.920;6.238;2022-10-16T06:37:49;13.30;99.90
52323;DHT22;38263;52.920;6.238;2022-10-16T06:40:14;13.20;99.90
52323;DHT22;38263;52.920;6.238;2022-10-16T06:42:41;13.30;99.90
52323;DHT22;38263;52.920;6.238;2022-10-16T06:45:07;13.40;99.90
52323;DHT22;38263;52.920;6.238;2022-10-16T06:47:32;13.40;99.90
52323;DHT22;38263;52.920;6.238;2022-10-16T06:49:58;13.20;99.90
52323;DHT22;38263;52.920;6.238;2022-10-16T06:52:24;13.30;99.90
52323;DHT22;38263;52.920;6.238;2022-10-16T06:54:49;13.30;99.90
52323;DHT22;38263;52.920;6.238;2022-10-16T06:57:15;13.40;99.90
52323;DHT22;38263;52.920;6.238;2022-10-16T06:59:41;13.30;99.90
52323;DHT22;38263;52.920;6.238;2022-10-16T07:02:08;13.20;99.90
52323;DHT22;38263;52.920;6.238;2022-10-16T07:04:36;13.40;99.90
52323;DHT22;38263;52.920;6.238;2022-10-16T07:07:01;13.50;99.90
52323;DHT22;38263;52.920;6.238;2022-10-16T07:09:27;13.50;99.90
52323;DHT22;38263;52.920;6.238;2022-10-16T07:11:53;13.50;99.90
52323;DHT22;38263;52.920;6.238;2022-10-16T07:14:20;13.60;99.90
52323;DHT22;38263;52.920;6.238;2022-10-16T07:16:46;13.20;99.90
52323;DHT22;38263;52.920;6.238;2022-10-16T07:19:12;13.50;99.90
52323;DHT22;38263;52.920;6.238;2022-10-16T07:21:40;13.40;99.90
52323;DHT22;38263;52.920;6.238;2022-10-16T07:24:10;13.60;99.90
52323;DHT22;38263;52.920;6.238;2022-10-16T07:26:36;13.60;99.90
52323;DHT22;38263;52.920;6.238;2022-10-16T07:29:04;13.50;99.90
52323;DHT22;38263;52.920;6.238;2022-10-16T07:31:30;13.50;99.90
52323;DHT22;38263;52.920;6.238;2022-10-16T07:33:58;13.60;99.90
52323;DHT22;38263;52.920;6.238;2022-10-16T07:36:24;13.60;99.90
52323;DHT22;38263;52.920;6.238;2022-10-16T07:41:18;13.70;99.90
52323;DHT22;38263;52.920;6.238;2022-10-16T07:43:48;13.80;99.90
52323;DHT22;38263;52.920;6.238;2022-10-16T07:46:14;13.60;99.90
52323;DHT22;38263;52.920;6.238;2022-10-16T07:48:41;13.70;99.90
52323;DHT22;38263;52.920;6.238;2022-10-16T07:51:11;13.90;99.90
52323;DHT22;38263;52.920;6.238;2022-10-16T07:56:05;13.90;99.90
52323;DHT22;38263;52.920;6.238;2022-10-16T07:58:32;13.90;99.90
52323;DHT22;38263;52.920;6.238;2022-10-16T08:00:58;13.90;99.90
52323;DHT22;38263;52.920;6.238;2022-10-16T08:03:24;14.00;99.90
52323;DHT22;38263;52.920;6.238;2022-10-16T08:05:50;14.00;99.90
52323;DHT22;38263;52.920;6.238;2022-10-16T08:08:17;14.00;99.90
52323;DHT22;38263;52.920;6.238;2022-10-16T08:10:44;14.10;99.90
52323;DHT22;38263;52.920;6.238;2022-10-16T08:13:09;14.00;99.90
52323;DHT22;38263;52.920;6.238;2022-10-16T08:15:35;14.10;99.90
52323;DHT22;38263;52.920;6.238;2022-10-16T08:18:03;14.00;99.90
52323;DHT22;38263;52.920;6.238;2022-10-16T08:20:30;14.30;99.90
52323;DHT22;38263;52.920;6.238;2022-10-16T08:22:56;15.60;99.90
52323;DHT22;38263;52.920;6.238;2022-10-16T08:25:22;15.80;99.90
52323;DHT22;38263;52.920;6.238;2022-10-16T08:27:49;16.30;99.90
52323;DHT22;38263;52.920;6.238;2022-10-16T08:30:15;16.20;99.90
52323;DHT22;38263;52.920;6.238;2022-10-16T08:32:41;16.40;99.90
52323;DHT22;38263;52.920;6.238;2022-10-16T08:35:08;16.70;99.90
52323;DHT22;38263;52.920;6.238;2022-10-16T08:37:34;16.70;99.90
52323;DHT22;38263;52.920;6.238;2022-10-16T08:40:00;16.70;99.90
52323;DHT22;38263;52.920;6.238;2022-10-16T08:45:33;16.60;99.90
52323;DHT22;38263;52.920;6.238;2022-10-16T08:48:16;18.20;99.90
52323;DHT22;38263;52.920;6.238;2022-10-16T08:50:43;18.80;99.90
52323;DHT22;38263;52.920;6.238;2022-10-16T08:53:16;19.70;99.90
52323;DHT22;38263;52.920;6.238;2022-10-16T08:55:51;19.80;99.90
52323;DHT22;38263;52.920;6.238;2022-10-16T08:58:29;20.60;99.90
52323;DHT22;38263;52.920;6.238;2022-10-16T09:00:58;20.70;99.90
52323;DHT22;38263;52.920;6.238;2022-10-16T09:06:47;21.90;99.90
52323;DHT22;38263;52.920;6.238;2022-10-16T09:15:41;21.10;99.90
52323;DHT22;38263;52.920;6.238;2022-10-16T09:18:10;20.90;99.90
52323;DHT22;38263;52.920;6.238;2022-10-16T09:20:51;21.70;99.90
52323;DHT22;38263;52.920;6.238;2022-10-16T09:23:26;21.80;99.90
52323;DHT22;38263;52.920;6.238;2022-10-16T09:25:53;21.80;99.90
52323;DHT22;38263;52.920;6.238;2022-10-16T09:28:19;22.00;99.90
52323;DHT22;38263;52.920;6.238;2022-10-16T09:30:45;23.10;99.90
52323;DHT22;38263;52.920;6.238;2022-10-16T09:33:12;23.20;99.90
52323;DHT22;38263;52.920;6.238;2022-10-16T09:35:43;23.80;99.90
52323;DHT22;38263;52.920;6.238;2022-10-16T09:38:24;22.40;99.90
52323;DHT22;38263;52.920;6.238;2022-10-16T09:40:50;22.60;99.90
52323;DHT22;38263;52.920;6.238;2022-10-16T09:46:32;23.20;99.90
52323;DHT22;38263;52.920;6.238;2022-10-16T09:49:04;24.10;99.90
52323;DHT22;38263;52.920;6.238;2022-10-16T09:51:34;23.90;99.90
52323;DHT22;38263;52.920;6.238;2022-10-16T09:56:36;23.80;99.90
52323;DHT22;38263;52.920;6.238;2022-10-16T09:59:15;25.10;99.90
52323;DHT22;38263;52.920;6.238;2022-10-16T10:01:46;23.90;99.90
52323;DHT22;38263;52.920;6.238;2022-10-16T10:04:12;23.30;99.90
52323;DHT22;38263;52.920;6.238;2022-10-16T10:06:50;23.40;99.90
52323;DHT22;38263;52.920;6.238;2022-10-16T10:09:25;22.20;99.90
52323;DHT22;38263;52.920;6.238;2022-10-16T10:14:31;20.70;99.90
52323;DHT22;38263;52.920;6.238;2022-10-16T10:17:25;19.90;99.90
52323;DHT22;38263;52.920;6.238;2022-10-16T10:19:57;19.30;99.90
52323;DHT22;38263;52.920;6.238;2022-10-16T10:22:41;18.90;99.90
52323;DHT22;38263;52.920;6.238;2022-10-16T10:25:14;18.50;99.90
52323;DHT22;38263;52.920;6.238;2022-10-16T10:36:11;18.60;99.90
52323;DHT22;38263;52.920;6.238;2022-10-16T10:38:58;18.00;99.90
52323;DHT22;38263;52.920;6.238;2022-10-16T10:41:49;17.80;99.90
52323;DHT22;38263;52.920;6.238;2022-10-16T10:46:51;18.10;99.90
52323;DHT22;38263;52.920;6.238;2022-10-16T10:49:24;18.20;99.90
52323;DHT22;38263;52.920;6.238;2022-10-16T11:01:14;17.50;99.90
52323;DHT22;38263;52.920;6.238;2022-10-16T11:06:48;17.10;99.90
52323;DHT22;38263;52.920;6.238;2022-10-16T11:12:25;17.20;99.90
52323;DHT22;38263;52.920;6.238;2022-10-16T11:15:28;17.20;99.90
52323;DHT22;38263;52.920;6.238;2022-10-16T11:18:30;17.20;99.90
52323;DHT22;38263;52.920;6.238;2022-10-16T11:21:02;17.20;99.90
52323;DHT22;38263;52.920;6.238;2022-10-16T11:26:11;17.20;99.90
52323;DHT22;38263;52.920;6.238;2022-10-16T11:28:48;17.20;99.90
52323;DHT22;38263;52.920;6.238;2022-10-16T11:31:24;17.50;99.90
52323;DHT22;38263;52.920;6.238;2022-10-16T11:37:04;17.90;99.90
52323;DHT22;38263;52.920;6.238;2022-10-16T11:39:31;18.30;99.90
52323;DHT22;38263;52.920;6.238;2022-10-16T11:42:41;18.30;99.90
52323;DHT22;38263;52.920;6.238;2022-10-16T11:45:17;17.90;99.90
52323;DHT22;38263;52.920;6.238;2022-10-16T11:50:50;18.00;99.90
52323;DHT22;38263;52.920;6.238;2022-10-16T11:53:38;19.10;99.90
52323;DHT22;38263;52.920;6.238;2022-10-16T11:56:07;18.10;99.90
52323;DHT22;38263;52.920;6.238;2022-10-16T11:58:44;17.80;99.90
52323;DHT22;38263;52.920;6.238;2022-10-16T12:01:38;17.60;99.90
52323;DHT22;38263;52.920;6.238;2022-10-16T12:07:04;17.60;99.90
52323;DHT22;38263;52.920;6.238;2022-10-16T12:09:33;18.00;99.90
52323;DHT22;38263;52.920;6.238;2022-10-16T12:12:00;17.50;99.90
52323;DHT22;38263;52.920;6.238;2022-10-16T12:14:41;17.50;99.90
52323;DHT22;38263;52.920;6.238;2022-10-16T12:17:26;17.50;99.90
52323;DHT22;38263;52.920;6.238;2022-10-16T12:25:32;17.60;99.90
52323;DHT22;38263;52.920;6.238;2022-10-16T12:28:04;18.10;99.90
52323;DHT22;38263;52.920;6.238;2022-10-16T12:30:35;18.90;99.90
52323;DHT22;38263;52.920;6.238;2022-10-16T12:33:04;17.80;99.90
52323;DHT22;38263;52.920;6.238;2022-10-16T12:35:35;17.60;99.90
52323;DHT22;38263;52.920;6.238;2022-10-16T12:38:18;17.70;99.90
52323;DHT22;38263;52.920;6.238;2022-10-16T12:40:53;17.40;99.90
52323;DHT22;38263;52.920;6.238;2022-10-16T12:49:37;17.20;99.90
52323;DHT22;38263;52.920;6.238;2022-10-16T12:52:03;17.30;99.90
52323;DHT22;38263;52.920;6.238;2022-10-16T12:54:37;17.40;99.90
52323;DHT22;38263;52.920;6.238;2022-10-16T12:57:09;17.40;99.90
52323;DHT22;38263;52.920;6.238;2022-10-16T13:02:54;17.40;99.90
52323;DHT22;38263;52.920;6.238;2022-10-16T13:05:46;17.30;99.90
52323;DHT22;38263;52.920;6.238;2022-10-16T13:08:54;17.20;99.90
52323;DHT22;38263;52.920;6.238;2022-10-16T13:14:18;17.30;99.90
52323;DHT22;38263;52.920;6.238;2022-10-16T13:22:24;17.30;99.90
52323;DHT22;38263;52.920;6.238;2022-10-16T13:30:29;17.20;99.90
52323;DHT22;38263;52.920;6.238;2022-10-16T13:33:02;17.10;99.90
52323;DHT22;38263;52.920;6.238;2022-10-16T13:35:30;17.10;99.90
52323;DHT22;38263;52.920;6.238;2022-10-16T13:38:18;17.20;99.90
52323;DHT22;38263;52.920;6.238;2022-10-16T13:46:01;17.00;99.90
52323;DHT22;38263;52.920;6.238;2022-10-16T13:48:29;17.10;99.90
52323;DHT22;38263;52.920;6.238;2022-10-16T13:51:19;17.10;99.90
52323;DHT22;38263;52.920;6.238;2022-10-16T13:53:45;17.10;99.90
52323;DHT22;38263;52.920;6.238;2022-10-16T13:56:13;17.20;99.90
52323;DHT22;38263;52.920;6.238;2022-10-16T13:58:40;17.40;99.90
52323;DHT22;38263;52.920;6.238;2022-10-16T14:01:20;17.30;99.90
52323;DHT22;38263;52.920;6.238;2022-10-16T14:03:49;17.00;99.90
52323;DHT22;38263;52.920;6.238;2022-10-16T14:06:18;16.90;99.90
52323;DHT22;38263;52.920;6.238;2022-10-16T14:08:59;16.90;99.90
52323;DHT22;38263;52.920;6.238;2022-10-16T14:11:26;17.10;99.90
52323;DHT22;38263;52.920;6.238;2022-10-16T14:13:52;17.10;99.90
52323;DHT22;38263;52.920;6.238;2022-10-16T14:16:24;17.10;99.90
52323;DHT22;38263;52.920;6.238;2022-10-16T14:18:57;16.90;99.90
52323;DHT22;38263;52.920;6.238;2022-10-16T14:21:24;16.90;99.90
52323;DHT22;38263;52.920;6.238;2022-10-16T14:23:50;16.80;99.90
52323;DHT22;38263;52.920;6.238;2022-10-16T14:26:21;16.70;99.90
52323;DHT22;38263;52.920;6.238;2022-10-16T14:28:48;16.80;99.90
52323;DHT22;38263;52.920;6.238;2022-10-16T14:32:21;16.80;99.90
52323;DHT22;38263;52.920;6.238;2022-10-16T14:34:37;16.70;99.90
52323;DHT22;38263;52.920;6.238;2022-10-16T14:37:21;16.80;99.90
52323;DHT22;38263;52.920;6.238;2022-10-16T14:39:52;17.00;99.90
52323;DHT22;38263;52.920;6.238;2022-10-16T14:42:19;17.00;99.90
52323;DHT22;38263;52.920;6.238;2022-10-16T14:44:46;16.70;99.90
52323;DHT22;38263;52.920;6.238;2022-10-16T14:47:18;16.60;99.90
52323;DHT22;38263;52.920;6.238;2022-10-16T14:49:52;16.50;99.90
52323;DHT22;38263;52.920;6.238;2022-10-16T14:52:20;16.50;99.90
52323;DHT22;38263;52.920;6.238;2022-10-16T14:54:49;16.70;99.90
52323;DHT22;38263;52.920;6.238;2022-10-16T14:57:23;16.50;99.90
52323;DHT22;38263;52.920;6.238;2022-10-16T14:59:49;16.40;99.90
52323;DHT22;38263;52.920;6.238;2022-10-16T15:02:28;16.40;99.90
52323;DHT22;38263;52.920;6.238;2022-10-16T15:04:55;16.30;99.90
52323;DHT22;38263;52.920;6.238;2022-10-16T15:13:28;16.20;99.90
52323;DHT22;38263;52.920;6.238;2022-10-16T15:15:53;16.30;99.90
52323;DHT22;38263;52.920;6.238;2022-10-16T15:18:19;16.40;99.90
52323;DHT22;38263;52.920;6.238;2022-10-16T15:20:48;16.30;99.90
52323;DHT22;38263;52.920;6.238;2022-10-16T15:23:20;16.40;99.90
52323;DHT22;38263;52.920;6.238;2022-10-16T15:25:48;16.50;99.90
52323;DHT22;38263;52.920;6.238;2022-10-16T15:28:15;16.10;99.90
52323;DHT22;38263;52.920;6.238;2022-10-16T15:30:41;16.10;99.90
52323;DHT22;38263;52.920;6.238;2022-10-16T15:33:22;15.90;99.90
52323;DHT22;38263;52.920;6.238;2022-10-16T15:35:51;16.00;99.90
52323;DHT22;38263;52.920;6.238;2022-10-16T15:38:19;15.90;99.90
52323;DHT22;38263;52.920;6.238;2022-10-16T15:40:46;16.00;99.90
52323;DHT22;38263;52.920;6.238;2022-10-16T15:43:11;15.90;99.90
52323;DHT22;38263;52.920;6.238;2022-10-16T15:45:37;15.90;99.90
52323;DHT22;38263;52.920;6.238;2022-10-16T15:48:03;15.60;99.90
52323;DHT22;38263;52.920;6.238;2022-10-16T15:50:30;15.60;99.90
52323;DHT22;38263;52.920;6.238;2022-10-16T15:52:55;15.40;99.90
52323;DHT22;38263;52.920;6.238;2022-10-16T15:55:21;15.40;99.90
52323;DHT22;38263;52.920;6.238;2022-10-16T15:57:47;15.50;99.90
52323;DHT22;38263;52.920;6.238;2022-10-16T16:00:16;15.40;99.90
52323;DHT22;38263;52.920;6.238;2022-10-16T16:02:42;15.30;99.90
52323;DHT22;38263;52.920;6.238;2022-10-16T16:05:09;15.30;99.90
52323;DHT22;38263;52.920;6.238;2022-10-16T16:07:37;15.30;99.90
52323;DHT22;38263;52.920;6.238;2022-10-16T16:10:04;15.30;99.90
52323;DHT22;38263;52.920;6.238;2022-10-16T16:12:30;15.20;99.90
52323;DHT22;38263;52.920;6.238;2022-10-16T16:14:56;15.10;99.90
52323;DHT22;38263;52.920;6.238;2022-10-16T16:17:21;15.10;99.90
52323;DHT22;38263;52.920;6.238;2022-10-16T16:19:47;15.00;99.90
52323;DHT22;38263;52.920;6.238;2022-10-16T16:22:13;14.90;99.90
52323;DHT22;38263;52.920;6.238;2022-10-16T16:24:38;14.80;99.90
52323;DHT22;38263;52.920;6.238;2022-10-16T16:27:04;14.60;99.90
52323;DHT22;38263;52.920;6.238;2022-10-16T16:29:29;14.40;99.90
52323;DHT22;38263;52.920;6.238;2022-10-16T16:31:55;14.40;99.90
52323;DHT22;38263;52.920;6.238;2022-10-16T16:34:28;14.40;99.90
52323;DHT22;38263;52.920;6.238;2022-10-16T16:36:55;14.20;99.90
52323;DHT22;38263;52.920;6.238;2022-10-16T16:39:21;14.20;99.90
52323;DHT22;38263;52.920;6.238;2022-10-16T16:41:47;14.20;99.90
52323;DHT22;38263;52.920;6.238;2022-10-16T16:44:14;14.20;99.90
52323;DHT22;38263;52.920;6.238;2022-10-16T16:46:40;14.10;99.90
52323;DHT22;38263;52.920;6.238;2022-10-16T16:49:09;14.00;99.90
52323;DHT22;38263;52.920;6.238;2022-10-16T16:51:37;13.80;99.90
52323;DHT22;38263;52.920;6.238;2022-10-16T16:54:02;13.90;99.90
52323;DHT22;38263;52.920;6.238;2022-10-16T16:56:28;14.00;99.90
52323;DHT22;38263;52.920;6.238;2022-10-16T16:58:55;13.90;99.90
52323;DHT22;38263;52.920;6.238;2022-10-16T17:01:23;13.80;99.90
52323;DHT22;38263;52.920;6.238;2022-10-16T17:03:51;13.60;99.90
52323;DHT22;38263;52.920;6.238;2022-10-16T17:06:21;13.50;99.90
52323;DHT22;38263;52.920;6.238;2022-10-16T17:08:48;13.70;99.90
52323;DHT22;38263;52.920;6.238;2022-10-16T17:11:20;13.40;99.90
52323;DHT22;38263;52.920;6.238;2022-10-16T17:13:46;13.30;99.90
52323;DHT22;38263;52.920;6.238;2022-10-16T17:16:12;13.20;99.90
52323;DHT22;38263;52.920;6.238;2022-10-16T17:18:38;13.10;99.90
52323;DHT22;38263;52.920;6.238;2022-10-16T17:21:06;12.90;99.90
52323;DHT22;38263;52.920;6.238;2022-10-16T17:23:33;13.20;99.90
52323;DHT22;38263;52.920;6.238;2022-10-16T17:26:13;13.00;99.90
52323;DHT22;38263;52.920;6.238;2022-10-16T17:28:40;13.20;99.90
52323;DHT22;38263;52.920;6.238;2022-10-16T17:31:11;13.00;99.90
52323;DHT22;38263;52.920;6.238;2022-10-16T17:33:38;12.90;99.90
52323;DHT22;38263;52.920;6.238;2022-10-16T17:36:04;13.10;99.90
52323;DHT22;38263;52.920;6.238;2022-10-16T17:38:30;12.90;99.90
52323;DHT22;38263;52.920;6.238;2022-10-16T17:43:22;12.70;99.90
52323;DHT22;38263;52.920;6.238;2022-10-16T17:48:13;12.80;99.90
52323;DHT22;38263;52.920;6.238;2022-10-16T17:50:40;12.80;99.90
52323;DHT22;38263;52.920;6.238;2022-10-16T17:55:38;12.90;99.90
52323;DHT22;38263;52.920;6.238;2022-10-16T17:58:03;13.00;99.90